Weather at Willoughby Airport [CLOSED]

Public forecast

Using degrees Celsius for public forecast. Weather courtesy of forecast.io.

Closest aviation weather report (METAR) to Willoughby Airport

Closest report is Niagara Falls International Airport, 7.2 nm (13.4 km) NE.

2024/05/28 00:53 (retrieved 36 minutes ago)

KIAG 280053Z 23015G24KT 10SM SCT034 OVC044 19/13 A2960 RMK AO2 SLP021 T01890133

Closest aviation forecast (TAF) to Willoughby Airport

Closest forecast is Niagara District Airport, 12.0 nm (22.1 km) NNW.

2024/05/27 20:00 (retrieved 5 hours ago)

TAF CYSN 271940Z 2720/2801 23020G30KT P6SM BKN030 OVC120 TEMPO 2720/2801 BKN020 OVC120 BECMG 2722/2724 23015KT RMK NXT FCST BY 281300Z